Time;durP1;ratioP1;P1;durP2;ratioP2;P2;SDS_P1;SDS_P2;PMS_P1;PMS_P2;Temp;Humidity;BMP_temperature;BMP_pressure;BME280_temperature;BME280_humidity;BME280_pressure;Samples;Min_cycle;Max_cycle;Signal;HPM_P1;HPM_P2
2021/07/22 00:01:10;;;;;;;;;;;;;;;18.57;64.20;101504.30;1688607;84;20103;-77
2021/07/22 00:03:36;;;;;;;;;;;;;;;18.56;64.23;101506.52;1668492;83;20199;-77
2021/07/22 00:06:02;;;;;;;;;;;;;;;18.56;64.37;101504.34;1675538;84;20271;-77
2021/07/22 00:08:28;;;;;;;;;;;;;;;18.55;64.29;101503.95;1684720;85;20200;-77
2021/07/22 00:10:54;;;;;;;;;;;;;;;18.52;64.38;101502.29;1685324;83;20125;-77
2021/07/22 00:13:20;;;;;;;;;;;;;;;18.50;64.24;101501.03;1682544;83;20167;-77
2021/07/22 00:15:46;;;;;;;;;;;;;;;18.46;64.43;101499.42;1685526;85;20248;-77
2021/07/22 00:18:12;;;;;;;;;;;;;;;18.44;64.49;101499.08;1671085;83;20145;-77
2021/07/22 00:20:38;;;;;;;;;;;;;;;18.42;64.39;101511.37;1678611;84;20167;-77
2021/07/22 00:23:04;;;;;;;;;;;;;;;18.34;64.51;101509.01;1679779;84;20141;-77
2021/07/22 00:25:30;;;;;;;;;;;;;;;18.34;64.74;101506.84;1687608;83;20457;-77
2021/07/22 00:27:57;;;;;;;;;;;;;;;18.34;64.74;101506.39;1682255;83;20392;-77
2021/07/22 00:30:23;;;;;;;;;;;;;;;18.34;64.86;101508.16;1676138;83;20477;-77
2021/07/22 00:32:49;;;;;;;;;;;;;;;18.33;64.92;101505.98;1686639;84;20147;-77
2021/07/22 00:35:15;;;;;;;;;;;;;;;18.34;65.00;101502.92;1677171;83;20428;-77
2021/07/22 00:37:41;;;;;;;;;;;;;;;18.30;64.80;101507.85;1684531;85;20138;-77
2021/07/22 00:40:08;;;;;;;;;;;;;;;18.27;65.07;101498.34;1681831;84;20138;-77
2021/07/22 00:42:53;;;;;;;;;;;;;;;18.29;65.17;101502.22;1686353;85;20194;-77
2021/07/22 00:45:19;;;;;;;;;;;;;;;18.30;65.23;101501.31;1679969;85;20108;-77
2021/07/22 00:47:45;;;;;;;;;;;;;;;18.30;65.16;101496.07;1679861;84;20096;-77
2021/07/22 00:50:11;;;;;;;;;;;;;;;18.30;65.23;101500.00;1682895;85;20157;-77
2021/07/22 00:52:37;;;;;;;;;;;;;;;18.26;65.25;101498.39;1684199;84;20135;-77
2021/07/22 00:55:03;;;;;;;;;;;;;;;18.27;65.34;101498.80;1682820;84;20177;-77
2021/07/22 00:57:29;;;;;;;;;;;;;;;18.28;65.46;101499.20;1679063;84;20442;-77
2021/07/22 00:59:56;;;;;;;;;;;;;;;18.29;65.55;101493.91;1680447;83;20098;-77
2021/07/22 01:02:21;;;;;;;;;;;;;;;18.29;65.50;101495.22;1684093;83;20134;-77
2021/07/22 01:04:48;;;;;;;;;;;;;;;18.30;65.42;101501.31;1681213;85;20134;-77
2021/07/22 01:07:14;;;;;;;;;;;;;;;18.29;65.51;101497.83;1681585;85;20153;-77
2021/07/22 01:09:40;;;;;;;;;;;;;;;18.27;65.47;101497.48;1673543;83;20581;-77
2021/07/22 01:12:06;;;;;;;;;;;;;;;18.27;65.63;101499.65;1677184;85;20142;-77
2021/07/22 01:14:32;;;;;;;;;;;;;;;18.28;65.67;101496.12;1685038;85;20398;-77
2021/07/22 01:16:58;;;;;;;;;;;;;;;18.28;65.60;101495.27;1685886;84;20591;-77
2021/07/22 01:19:24;;;;;;;;;;;;;;;18.27;65.77;101491.80;1680189;84;20233;-77
2021/07/22 01:21:50;;;;;;;;;;;;;;;18.28;65.83;101496.12;1688306;84;20110;-77
2021/07/22 01:24:16;;;;;;;;;;;;;;;18.28;65.82;101493.95;1684296;84;20225;-77
2021/07/22 01:26:56;;;;;;;;;;;;;;;18.27;65.93;101498.34;1680253;83;20133;-77
2021/07/22 01:29:22;;;;;;;;;;;;;;;18.25;65.90;101493.61;1684349;85;20153;-77
2021/07/22 01:31:48;;;;;;;;;;;;;;;18.22;65.97;101492.41;1686519;83;20133;-77
2021/07/22 01:34:14;;;;;;;;;;;;;;;18.22;65.98;101487.16;1671460;84;20448;-77
2021/07/22 01:36:40;;;;;;;;;;;;;;;18.19;66.13;101490.77;1685265;85;20189;-77
2021/07/22 01:39:06;;;;;;;;;;;;;;;18.19;66.19;101485.99;1683706;83;20122;-77
2021/07/22 01:41:35;;;;;;;;;;;;;;;18.19;66.28;101485.53;1662709;83;20167;-77
2021/07/22 01:44:03;;;;;;;;;;;;;;;18.21;66.35;101489.38;1684911;85;20099;-77
2021/07/22 01:46:29;;;;;;;;;;;;;;;18.19;66.22;101480.30;1674778;84;20097;-77
2021/07/22 01:48:55;;;;;;;;;;;;;;;18.18;66.30;101491.68;1679614;83;20204;-77
2021/07/22 01:51:21;;;;;;;;;;;;;;;18.15;66.42;101487.00;1678684;84;20106;-77
2021/07/22 01:53:48;;;;;;;;;;;;;;;18.16;66.43;101487.41;1688296;84;20163;-77
2021/07/22 01:56:14;;;;;;;;;;;;;;;18.15;66.45;101490.92;1681053;84;20122;-77
2021/07/22 01:58:40;;;;;;;;;;;;;;;18.14;66.54;101486.14;1677224;83;20165;-77
2021/07/22 02:01:06;;;;;;;;;;;;;;;18.13;66.61;101485.74;1698567;84;20210;-77
2021/07/22 02:03:32;;;;;;;;;;;;;;;18.14;66.64;101482.67;1692616;84;20961;-77
2021/07/22 02:05:59;;;;;;;;;;;;;;;18.13;66.65;101480.96;1701776;82;20086;-77
2021/07/22 02:08:25;;;;;;;;;;;;;;;18.12;66.65;101482.72;1708714;83;20172;-77
2021/07/22 02:10:51;;;;;;;;;;;;;;;18.10;66.60;101481.06;1702812;83;20495;-77
2021/07/22 02:13:35;;;;;;;;;;;;;;;18.08;66.71;101484.19;1684384;83;20129;-77
2021/07/22 02:16:09;;;;;;;;;;;;;;;18.07;66.76;101479.85;1702419;84;20107;-77
2021/07/22 02:18:35;;;;;;;;;;;;;;;18.06;66.73;101480.76;1691671;82;20439;-77
2021/07/22 02:21:06;;;;;;;;;;;;;;;18.04;66.88;101486.50;1699004;84;20105;-77
2021/07/22 02:23:33;;;;;;;;;;;;;;;18.03;66.85;101490.02;1694523;84;20139;-77
2021/07/22 02:26:01;;;;;;;;;;;;;;;17.99;66.79;101489.27;1688553;82;20094;-77
2021/07/22 02:28:28;;;;;;;;;;;;;;;17.94;66.90;101487.70;1703141;83;20105;-77
2021/07/22 02:30:54;;;;;;;;;;;;;;;17.91;67.06;101493.89;1687683;84;20110;-77
2021/07/22 02:33:20;;;;;;;;;;;;;;;17.92;67.13;101486.89;1703548;83;20156;-77
2021/07/22 02:35:46;;;;;;;;;;;;;;;17.91;67.12;101489.11;1694609;83;20101;-77
2021/07/22 02:38:13;;;;;;;;;;;;;;;17.89;67.07;101492.23;1694989;82;20098;-77
2021/07/22 02:40:39;;;;;;;;;;;;;;;17.86;67.13;101492.73;1698340;82;20126;-77
2021/07/22 02:43:06;;;;;;;;;;;;;;;17.82;67.14;101493.73;1689279;84;20111;-77
2021/07/22 02:45:32;;;;;;;;;;;;;;;17.78;67.24;101496.50;1699186;84;20089;-77
2021/07/22 02:47:58;;;;;;;;;;;;;;;17.78;67.48;101494.73;1691779;82;20599;-77
2021/07/22 02:50:24;;;;;;;;;;;;;;;17.84;67.58;101494.54;1695666;84;20085;-77
2021/07/22 02:52:50;;;;;;;;;;;;;;;17.88;67.55;101494.44;1698375;82;20168;-77
2021/07/22 02:55:16;;;;;;;;;;;;;;;17.91;67.55;101491.73;1699064;84;20131;-77
2021/07/22 02:57:42;;;;;;;;;;;;;;;17.89;67.55;101491.77;1694998;84;20180;-77
2021/07/22 03:00:09;;;;;;;;;;;;;;;17.90;67.58;101493.94;1695270;83;20184;-77
2021/07/22 03:02:35;;;;;;;;;;;;;;;17.90;67.62;101494.80;1671411;83;20097;-77
2021/07/22 03:05:01;;;;;;;;;;;;;;;17.87;67.33;101489.66;1679012;85;20195;-77
2021/07/22 03:07:27;;;;;;;;;;;;;;;17.82;67.65;101493.73;1683871;85;20130;-77
2021/07/22 03:09:53;;;;;;;;;;;;;;;17.84;67.72;101491.92;1673846;83;20130;-77
2021/07/22 03:12:19;;;;;;;;;;;;;;;17.86;67.80;101490.11;1686772;84;20748;-77
2021/07/22 03:14:45;;;;;;;;;;;;;;;17.89;67.92;101497.01;1679185;84;20173;-77
2021/07/22 03:17:11;;;;;;;;;;;;;;;17.89;67.80;101488.30;1707451;83;20163;-77
2021/07/22 03:19:37;;;;;;;;;;;;;;;17.90;67.92;101495.25;1687310;84;20138;-77
2021/07/22 03:22:03;;;;;;;;;;;;;;;17.90;67.97;101488.70;1680078;83;20169;-77
2021/07/22 03:24:31;;;;;;;;;;;;;;;17.91;68.00;101486.49;1687273;85;20102;-77
2021/07/22 03:26:57;;;;;;;;;;;;;;;17.92;67.98;101492.98;1687109;85;20107;-77
2021/07/22 03:29:23;;;;;;;;;;;;;;;17.90;67.91;101489.56;1675568;85;20089;-77
2021/07/22 03:31:50;;;;;;;;;;;;;;;17.89;67.97;101492.23;1683250;84;20135;-77
2021/07/22 03:34:18;;;;;;;;;;;;;;;17.89;68.13;101490.47;1671651;85;20217;-77
2021/07/22 03:36:45;;;;;;;;;;;;;;;17.92;68.13;101489.52;1679814;85;20213;-77
2021/07/22 03:39:14;;;;;;;;;;;;;;;17.90;68.14;101488.70;1683525;84;20146;-77
2021/07/22 03:41:47;;;;;;;;;;;;;;;17.91;68.24;101493.89;1684290;83;20191;-77
2021/07/22 03:44:07;;;;;;;;;;;;;;;17.92;68.19;101490.83;1683172;85;20177;-77
2021/07/22 03:46:33;;;;;;;;;;;;;;;17.93;68.36;101489.91;1683995;84;20216;-77
2021/07/22 03:48:59;;;;;;;;;;;;;;;17.95;68.39;101492.89;1684879;83;20198;-77
2021/07/22 03:51:25;;;;;;;;;;;;;;;17.96;68.35;101488.51;1686583;83;20199;-77
2021/07/22 03:53:51;;;;;;;;;;;;;;;17.99;68.41;101489.27;1682394;84;20216;-77
2021/07/22 03:56:17;;;;;;;;;;;;;;;18.02;68.47;101498.33;1673780;83;20253;-77
2021/07/22 03:58:43;;;;;;;;;;;;;;;18.03;68.44;101494.80;1674896;85;20266;-77
2021/07/22 04:01:09;;;;;;;;;;;;;;;18.04;68.35;101494.35;1684849;84;20180;-77
2021/07/22 04:03:50;;;;;;;;;;;;;;;18.04;68.42;101492.59;1679997;83;20445;-77
2021/07/22 04:06:16;;;;;;;;;;;;;;;18.05;68.52;101496.92;1675722;83;20273;-77
2021/07/22 04:08:42;;;;;;;;;;;;;;;18.08;68.59;101494.66;1685029;84;20198;-77
2021/07/22 04:11:13;;;;;;;;;;;;;;;18.11;68.55;101501.09;1679535;83;20218;-77
2021/07/22 04:13:39;;;;;;;;;;;;;;;18.11;68.44;101497.17;1683477;84;20180;-77
2021/07/22 04:16:05;;;;;;;;;;;;;;;18.10;68.56;101496.77;1682870;83;20766;-77
2021/07/22 04:18:31;;;;;;;;;;;;;;;18.10;68.67;101503.31;1685449;85;20187;-77
2021/07/22 04:21:03;;;;;;;;;;;;;;;18.14;68.77;101504.92;1683371;84;20198;-77
2021/07/22 04:23:31;;;;;;;;;;;;;;;18.19;68.75;101500.39;1677840;83;20214;-77
2021/07/22 04:25:57;;;;;;;;;;;;;;;18.19;68.75;101499.94;1684109;84;20213;-77
2021/07/22 04:28:23;;;;;;;;;;;;;;;18.23;68.81;101504.59;1684547;85;20130;-77
2021/07/22 04:30:49;;;;;;;;;;;;;;;18.26;68.77;101505.80;1683346;83;20340;-77
2021/07/22 04:33:15;;;;;;;;;;;;;;;18.28;68.86;101505.73;1686810;85;20629;-77
2021/07/22 04:35:41;;;;;;;;;;;;;;;18.31;68.84;101505.19;1680755;84;20214;-77
2021/07/22 04:38:07;;;;;;;;;;;;;;;18.33;68.91;101505.13;1680900;85;20449;-76
2021/07/22 04:40:33;;;;;;;;;;;;;;;18.34;68.97;101503.77;1679832;83;20182;-78
2021/07/22 04:43:00;;;;;;;;;;;;;;;18.36;68.98;101497.17;1686585;85;20126;-78
2021/07/22 04:45:29;;;;;;;;;;;;;;;18.39;69.03;101491.37;1683042;84;20462;-78
2021/07/22 04:47:56;;;;;;;;;;;;;;;18.42;69.12;101491.73;1681381;84;20229;-76
2021/07/22 04:50:22;;;;;;;;;;;;;;;18.46;69.07;101492.02;1676360;85;20176;-76
2021/07/22 04:52:49;;;;;;;;;;;;;;;18.45;69.01;101487.23;1684312;84;20142;-76
2021/07/22 04:55:17;;;;;;;;;;;;;;;18.44;69.10;101493.39;1677876;83;32586;-76
2021/07/22 04:57:42;;;;;;;;;;;;;;;18.47;69.14;101497.20;1685244;83;20201;-76
2021/07/22 05:00:10;;;;;;;;;;;;;;;18.51;69.30;101488.79;1680745;84;20220;-76
2021/07/22 05:02:36;;;;;;;;;;;;;;;18.56;69.23;101493.41;1685165;85;20492;-76
2021/07/22 05:05:02;;;;;;;;;;;;;;;18.59;69.26;101497.23;1676879;85;20826;-76
2021/07/22 05:07:28;;;;;;;;;;;;;;;18.64;69.35;101494.03;1683153;84;20200;-76
2021/07/22 05:09:54;;;;;;;;;;;;;;;18.68;69.21;101498.71;1675967;85;20687;-76
2021/07/22 05:12:20;;;;;;;;;;;;;;;18.71;69.37;101498.60;1678990;83;20185;-76
2021/07/22 05:14:47;;;;;;;;;;;;;;;18.72;69.37;101500.28;1669984;83;20175;-76
2021/07/22 05:17:12;;;;;;;;;;;;;;;18.77;69.34;101499.66;1686954;85;20102;-76
2021/07/22 05:19:39;;;;;;;;;;;;;;;18.78;69.33;101499.61;1682848;84;20141;-76
2021/07/22 05:22:05;;;;;;;;;;;;;;;18.82;69.40;101502.52;1687091;84;20138;-76
2021/07/22 05:24:31;;;;;;;;;;;;;;;18.86;69.50;101498.02;1681752;84;20138;-76
2021/07/22 05:27:01;;;;;;;;;;;;;;;18.92;69.48;101496.49;1682278;85;20140;-76
2021/07/22 05:29:27;;;;;;;;;;;;;;;18.93;69.32;101495.58;1675328;84;20246;-76
2021/07/22 05:31:53;;;;;;;;;;;;;;;18.95;69.46;101494.22;1668037;83;20250;-76
2021/07/22 05:34:25;;;;;;;;;;;;;;;18.93;69.25;101492.11;1672864;83;20126;-76
2021/07/22 05:36:51;;;;;;;;;;;;;;;18.89;69.26;101497.06;1685965;83;20743;-76
2021/07/22 05:39:17;;;;;;;;;;;;;;;18.88;69.40;101495.35;1685330;83;20725;-76
2021/07/22 05:41:43;;;;;;;;;;;;;;;18.92;69.60;101500.42;1670177;84;20126;-76
2021/07/22 05:44:09;;;;;;;;;;;;;;;19.01;69.70;101499.23;1679187;83;20236;-76
2021/07/22 05:46:35;;;;;;;;;;;;;;;19.10;69.66;101493.20;1679927;85;20145;-76
2021/07/22 05:49:01;;;;;;;;;;;;;;;19.16;69.65;101503.91;1669702;85;20409;-76
2021/07/22 05:51:31;;;;;;;;;;;;;;;19.22;69.47;101497.58;1673180;84;20627;-76
2021/07/22 05:53:55;;;;;;;;;;;;;;;19.24;69.51;101496.58;1681126;84;20130;-76
2021/07/22 05:56:21;;;;;;;;;;;;;;;19.26;69.25;101497.38;1439191;84;20012363;-76
2021/07/22 05:58:47;;;;;;;;;;;;;;;19.22;69.42;101497.58;1674454;83;20108;-75
2021/07/22 06:01:13;;;;;;;;;;;;;;;19.27;69.62;101495.16;1679573;84;20673;-75
2021/07/22 06:03:39;;;;;;;;;;;;;;;19.30;69.31;101502.91;1676000;84;20678;-75
2021/07/22 06:06:06;;;;;;;;;;;;;;;19.27;69.61;101495.16;1684201;84;20424;-75
2021/07/22 06:08:34;;;;;;;;;;;;;;;19.36;69.52;101495.27;1696973;83;20418;-75
2021/07/22 06:11:02;;;;;;;;;;;;;;;19.40;69.59;101503.41;1663721;86;20096;-75
2021/07/22 06:13:28;;;;;;;;;;;;;;;19.47;69.69;101500.95;1675169;84;20138;-75
2021/07/22 06:15:54;;;;;;;;;;;;;;;19.51;69.51;101506.51;1673913;84;20105;-75
2021/07/22 06:18:21;;;;;;;;;;;;;;;19.53;69.47;101505.14;1687766;85;20130;-75
2021/07/22 06:20:47;;;;;;;;;;;;;;;19.57;69.57;101508.89;1675609;84;21154;-75
2021/07/22 06:23:13;;;;;;;;;;;;;;;19.57;69.32;101499.71;1675906;84;20108;-75
2021/07/22 06:25:39;;;;;;;;;;;;;;;19.57;69.40;101506.73;1679671;84;20452;-75
2021/07/22 06:28:05;;;;;;;;;;;;;;;19.61;69.48;101501.77;1677232;84;20109;-75
2021/07/22 06:30:31;;;;;;;;;;;;;;;19.63;69.33;101498.16;1675672;84;20096;-75
2021/07/22 06:32:57;;;;;;;;;;;;;;;19.66;69.51;101497.19;1675372;84;20749;-75
2021/07/22 06:35:23;;;;;;;;;;;;;;;19.72;69.47;101497.80;1673770;84;20152;-75
2021/07/22 06:37:49;;;;;;;;;;;;;;;19.77;69.55;101494.50;1686724;85;20180;-75
2021/07/22 06:40:16;;;;;;;;;;;;;;;19.80;69.37;101491.75;1684345;85;20560;-75
2021/07/22 06:42:42;;;;;;;;;;;;;;;19.82;69.25;101495.17;1682442;83;20110;-75
2021/07/22 06:45:09;;;;;;;;;;;;;;;19.82;69.19;101494.31;1682195;84;20142;-76
2021/07/22 06:47:39;;;;;;;;;;;;;;;19.83;69.35;101500.81;1676731;83;20127;-77
2021/07/22 06:50:07;;;;;;;;;;;;;;;19.89;69.24;101492.30;1674440;84;20137;-77
2021/07/22 06:52:37;;;;;;;;;;;;;;;19.96;69.39;101497.70;1668321;85;20136;-77
2021/07/22 06:55:12;;;;;;;;;;;;;;;20.03;69.21;101498.70;1679735;83;20094;-77
2021/07/22 06:57:38;;;;;;;;;;;;;;;20.10;69.20;101497.53;1681816;84;20426;-76
2021/07/22 07:00:06;;;;;;;;;;;;;;;20.19;69.17;101496.30;1685647;83;20192;-76
2021/07/22 07:02:33;;;;;;;;;;;;;;;20.26;68.91;101502.14;1662030;85;20142;-76
2021/07/22 07:04:59;;;;;;;;;;;;;;;20.32;69.10;101504.02;1677221;83;20157;-76
2021/07/22 07:07:25;;;;;;;;;;;;;;;20.42;68.87;101500.12;1686405;84;20765;-76
2021/07/22 07:09:53;;;;;;;;;;;;;;;20.44;68.88;101498.73;1685429;84;20161;-76
2021/07/22 07:12:19;;;;;;;;;;;;;;;20.47;68.74;101502.09;1683838;85;20572;-76
2021/07/22 07:14:53;;;;;;;;;;;;;;;20.49;68.64;101505.97;1687785;83;20103;-76
2021/07/22 07:17:19;;;;;;;;;;;;;;;20.52;68.87;101501.04;1678006;84;20157;-76
2021/07/22 07:19:45;;;;;;;;;;;;;;;20.61;68.83;101500.64;1676106;83;20114;-76
2021/07/22 07:22:30;;;;;;;;;;;;;;;20.67;68.77;101498.60;1685743;83;20538;-76
2021/07/22 07:24:56;;;;;;;;;;;;;;;20.77;68.75;101501.69;1682262;85;20110;-76
2021/07/22 07:27:25;;;;;;;;;;;;;;;20.85;68.58;101497.37;1682056;85;20110;-76
2021/07/22 07:29:51;;;;;;;;;;;;;;;20.91;68.66;101494.47;1677118;83;20287;-76
2021/07/22 07:32:17;;;;;;;;;;;;;;;21.05;68.56;101499.50;1680604;85;20122;-76
2021/07/22 07:34:43;;;;;;;;;;;;;;;21.08;68.32;101494.09;1679331;85;20595;-76
2021/07/22 07:37:09;;;;;;;;;;;;;;;21.21;68.48;101493.53;1671013;84;20503;-76
2021/07/22 07:39:39;;;;;;;;;;;;;;;21.32;68.34;101495.20;1683583;85;20102;-76
2021/07/22 07:42:07;;;;;;;;;;;;;;;21.43;68.22;101492.47;1676402;84;20095;-77
2021/07/22 07:44:34;;;;;;;;;;;;;;;21.53;68.10;101494.20;1672041;83;20126;-77
2021/07/22 07:47:03;;;;;;;;;;;;;;;21.64;68.09;101496.33;1677853;84;20449;-77
2021/07/22 07:49:31;;;;;;;;;;;;;;;21.80;68.07;101502.09;1677585;83;20115;-77
2021/07/22 07:51:57;;;;;;;;;;;;;;;21.90;67.93;101491.94;1681798;83;20161;-77
2021/07/22 07:54:23;;;;;;;;;;;;;;;22.00;67.89;101498.45;1683319;84;20178;-77
2021/07/22 07:56:55;;;;;;;;;;;;;;;22.09;68.01;101489.28;1682353;83;20150;-77
2021/07/22 07:59:39;;;;;;;;;;;;;;;22.26;67.83;101495.88;1680853;84;20436;-76
2021/07/22 08:02:05;;;;;;;;;;;;;;;22.47;67.77;101493.90;1691454;82;20488;-76
2021/07/22 08:04:31;;;;;;;;;;;;;;;22.63;67.61;101490.86;1701587;82;20780;-76
2021/07/22 08:06:57;;;;;;;;;;;;;;;22.80;67.59;101485.20;1692866;83;20200;-76
2021/07/22 08:09:44;;;;;;;;;;;;;;;22.99;67.58;101493.33;1690050;82;20124;-76
2021/07/22 08:12:10;;;;;;;;;;;;;;;23.20;67.42;101492.64;1700417;82;20109;-76
2021/07/22 08:14:38;;;;;;;;;;;;;;;23.35;67.34;101488.31;1693288;84;20100;-76
2021/07/22 08:17:05;;;;;;;;;;;;;;;23.44;67.02;101491.73;1681859;83;20415;-76
2021/07/22 08:19:31;;;;;;;;;;;;;;;23.48;67.02;101491.94;1697397;82;20119;-77
2021/07/22 08:21:57;;;;;;;;;;;;;;;23.54;67.03;101492.10;1703337;83;20422;-77
2021/07/22 08:24:24;;;;;;;;;;;;;;;23.56;66.90;101492.87;1699768;82;20429;-77
2021/07/22 08:26:50;;;;;;;;;;;;;;;23.54;66.95;101486.35;1701577;82;20188;-78
2021/07/22 08:29:16;;;;;;;;;;;;;;;23.61;66.96;101489.03;1701524;83;20275;-78
2021/07/22 08:31:42;;;;;;;;;;;;;;;23.69;66.66;101484.17;1701588;83;20571;-78
2021/07/22 08:34:09;;;;;;;;;;;;;;;23.78;66.74;101487.22;1697445;82;20754;-77
2021/07/22 08:36:35;;;;;;;;;;;;;;;23.90;66.57;101482.09;1701773;82;20105;-77
2021/07/22 08:39:01;;;;;;;;;;;;;;;23.98;66.47;101481.61;1699509;83;20105;-77
2021/07/22 08:41:27;;;;;;;;;;;;;;;24.15;66.45;101480.63;1702237;82;20754;-77
2021/07/22 08:43:55;;;;;;;;;;;;;;;24.40;66.28;101478.27;1694329;82;20426;-77
2021/07/22 08:46:21;;;;;;;;;;;;;;;24.57;66.08;101474.11;1695612;84;20110;-79
2021/07/22 08:48:47;;;;;;;;;;;;;;;24.79;66.01;101478.94;1682654;84;20161;-78
2021/07/22 08:51:13;;;;;;;;;;;;;;;24.94;65.75;101472.70;1689733;82;20165;-78
2021/07/22 08:53:40;;;;;;;;;;;;;;;25.09;66.12;101476.18;1700339;84;20247;-78
2021/07/22 08:56:07;;;;;;;;;;;;;;;25.19;65.53;101479.09;1693723;83;20561;-77
2021/07/22 08:58:38;;;;;;;;;;;;;;;25.28;65.42;101474.55;1702629;82;20117;-78
2021/07/22 09:01:10;;;;;;;;;;;;;;;25.36;65.41;101472.26;1702782;82;20125;-78
2021/07/22 09:03:36;;;;;;;;;;;;;;;25.56;65.24;101470.94;1693429;84;20094;-78
2021/07/22 09:06:14;;;;;;;;;;;;;;;25.81;65.35;101472.39;1701953;82;20106;-78
2021/07/22 09:08:42;;;;;;;;;;;;;;;26.05;65.12;101463.25;1681898;83;20557;-76
2021/07/22 09:11:10;;;;;;;;;;;;;;;26.34;64.75;101469.27;1697203;83;20432;-76
2021/07/22 09:13:39;;;;;;;;;;;;;;;26.88;64.76;101473.00;1689501;84;20557;-76
2021/07/22 09:16:06;;;;;;;;;;;;;;;27.11;64.70;101468.70;1687994;82;20768;-76
2021/07/22 09:18:36;;;;;;;;;;;;;;;27.60;64.37;101470.82;1669407;84;20441;-77
2021/07/22 09:21:17;;;;;;;;;;;;;;;28.07;64.25;101466.42;1678934;84;20518;-77
2021/07/22 09:24:02;;;;;;;;;;;;;;;28.48;64.12;101464.58;1677597;83;20544;-77
2021/07/22 09:26:32;;;;;;;;;;;;;;;28.68;63.68;101464.33;1700016;84;20543;-77
2021/07/22 09:29:04;;;;;;;;;;;;;;;28.66;63.98;101456.94;1689497;82;20533;-77
2021/07/22 09:31:30;;;;;;;;;;;;;;;28.25;63.43;101455.71;1699593;84;20544;-77
2021/07/22 09:33:56;;;;;;;;;;;;;;;27.79;63.48;101454.84;1694172;83;20758;-77
2021/07/22 09:36:25;;;;;;;;;;;;;;;27.45;63.50;101450.70;1703591;83;20508;-77
2021/07/22 09:38:51;;;;;;;;;;;;;;;27.07;63.06;101452.62;1695552;82;20488;-78
2021/07/22 09:41:21;;;;;;;;;;;;;;;26.88;63.09;101441.14;1694139;83;20601;-78
2021/07/22 09:43:47;;;;;;;;;;;;;;;26.84;63.05;101436.53;1687411;84;20111;-78
2021/07/22 09:46:15;;;;;;;;;;;;;;;26.79;62.74;101440.47;1699329;82;20488;-77
2021/07/22 09:49:04;;;;;;;;;;;;;;;26.65;62.37;101443.61;1695817;83;20499;-77
2021/07/22 09:51:33;;;;;;;;;;;;;;;26.55;61.99;101439.91;1687887;82;20559;-77
2021/07/22 09:54:11;;;;;;;;;;;;;;;26.37;61.92;101435.91;1697897;82;20093;-77
2021/07/22 09:56:37;;;;;;;;;;;;;;;26.35;61.61;101437.34;1696878;83;20093;-74
2021/07/22 09:59:04;;;;;;;;;;;;;;;26.42;61.71;101434.27;1697930;83;20543;-74
2021/07/22 10:01:33;;;;;;;;;;;;;;;26.41;61.16;101434.74;1697384;82;20504;-74
2021/07/22 10:04:01;;;;;;;;;;;;;;;26.41;61.09;101432.56;1671706;84;20122;-74
2021/07/22 10:06:28;;;;;;;;;;;;;;;26.38;60.85;101434.48;1695800;82;20141;-74
2021/07/22 10:08:54;;;;;;;;;;;;;;;26.25;60.59;101429.61;1695371;82;20118;-74
2021/07/22 10:11:21;;;;;;;;;;;;;;;26.13;60.80;101429.60;1703089;84;20574;-74
2021/07/22 10:13:47;;;;;;;;;;;;;;;26.00;60.50;101419.83;1698253;83;20439;-74
2021/07/22 10:16:18;;;;;;;;;;;;;;;25.92;60.38;101426.63;1690321;82;20884;-74
2021/07/22 10:18:46;;;;;;;;;;;;;;;25.71;60.25;101424.94;1689923;83;20402;-77
2021/07/22 10:21:12;;;;;;;;;;;;;;;25.50;60.20;101422.34;1695488;83;20437;-76
2021/07/22 10:23:40;;;;;;;;;;;;;;;25.36;60.04;101420.15;1693802;82;20411;-76
2021/07/22 10:26:06;;;;;;;;;;;;;;;25.28;60.09;101418.95;1694707;83;20097;-76
2021/07/22 10:28:38;;;;;;;;;;;;;;;25.20;59.97;101421.23;1683271;83;20490;-76
2021/07/22 10:31:06;;;;;;;;;;;;;;;25.14;59.97;101422.48;1696773;82;20484;-76
2021/07/22 10:33:34;;;;;;;;;;;;;;;25.11;59.90;101423.15;1702754;82;20484;-76
2021/07/22 10:36:03;;;;;;;;;;;;;;;25.03;59.70;101420.98;1683970;83;20104;-76
2021/07/22 10:38:46;;;;;;;;;;;;;;;24.97;59.59;101425.34;1694119;84;20460;-76
2021/07/22 10:41:34;;;;;;;;;;;;;;;24.90;59.64;101424.88;1694892;84;20499;-76
2021/07/22 10:44:00;;;;;;;;;;;;;;;24.86;59.63;101419.87;1679855;83;20389;-76
2021/07/22 10:46:33;;;;;;;;;;;;;;;24.74;59.59;101416.20;1686796;83;20105;-75
2021/07/22 10:49:14;;;;;;;;;;;;;;;24.74;59.63;101417.53;1694860;83;20429;-75
2021/07/22 10:51:48;;;;;;;;;;;;;;;24.80;59.65;101421.11;1696888;82;20540;-75
2021/07/22 10:54:44;;;;;;;;;;;;;;;24.82;59.40;101417.91;1691414;83;20114;-77
2021/07/22 10:57:37;;;;;;;;;;;;;;;24.74;59.28;101418.85;1691220;82;20416;-75
2021/07/22 11:00:06;;;;;;;;;;;;;;;24.75;59.28;101414.79;1686539;84;20121;-76
2021/07/22 11:02:41;;;;;;;;;;;;;;;24.68;59.10;101412.63;1680059;84;20140;-75
2021/07/22 11:05:11;;;;;;;;;;;;;;;24.62;59.23;101416.49;1676225;84;20182;-75
2021/07/22 11:07:41;;;;;;;;;;;;;;;24.64;59.07;101417.25;1674232;85;20433;-76
2021/07/22 11:10:07;;;;;;;;;;;;;;;24.61;58.94;101409.50;1680424;83;20187;-76
2021/07/22 11:12:44;;;;;;;;;;;;;;;24.56;58.92;101411.58;1679318;85;20668;-76
2021/07/22 11:15:19;;;;;;;;;;;;;;;24.57;59.08;101411.11;1677215;84;20188;-76
2021/07/22 11:17:47;;;;;;;;;;;;;;;24.61;59.09;101411.30;1640260;86;20155;-75
2021/07/22 11:20:21;;;;;;;;;;;;;;;24.67;58.93;101413.09;1648676;84;21316;-75
2021/07/22 11:22:49;;;;;;;;;;;;;;;24.66;58.81;101408.75;1689026;84;20205;-75
2021/07/22 11:25:17;;;;;;;;;;;;;;;24.75;58.93;101403.36;1682822;84;20216;-75
2021/07/22 11:27:45;;;;;;;;;;;;;;;24.78;58.96;101405.81;1657171;83;20458;-76
2021/07/22 11:30:12;;;;;;;;;;;;;;;24.84;58.76;101398.81;1681832;83;20162;-76
2021/07/22 11:32:38;;;;;;;;;;;;;;;24.98;58.76;101405.88;1665435;84;20197;-77
2021/07/22 11:35:06;;;;;;;;;;;;;;;25.17;58.65;101397.14;1664289;86;20195;-78
2021/07/22 11:37:32;;;;;;;;;;;;;;;25.34;58.56;101390.75;1667735;84;20242;-76
2021/07/22 11:39:59;;;;;;;;;;;;;;;25.48;58.35;101385.37;1673494;83;20233;-77
2021/07/22 11:42:25;;;;;;;;;;;;;;;25.58;58.29;101386.45;1660466;85;20186;-76
2021/07/22 11:45:07;;;;;;;;;;;;;;;25.63;58.11;101388.33;1681599;83;20229;-76
2021/07/22 11:47:34;;;;;;;;;;;;;;;25.72;58.15;101392.19;1658687;85;20219;-76
2021/07/22 11:50:00;;;;;;;;;;;;;;;25.77;58.27;101389.23;1683066;83;20196;-77
2021/07/22 11:52:28;;;;;;;;;;;;;;;25.73;57.93;101391.24;1692824;83;20133;-77
2021/07/22 11:55:08;;;;;;;;;;;;;;;25.68;58.23;101386.73;1677911;85;20315;-77
2021/07/22 11:57:39;;;;;;;;;;;;;;;25.73;57.95;101376.20;1687922;84;20149;-76
2021/07/22 12:00:20;;;;;;;;;;;;;;;25.79;57.91;101375.41;1667700;83;20106;-77
2021/07/22 12:02:54;;;;;;;;;;;;;;;25.80;57.89;101370.48;1536412;85;10001096;-76
2021/07/22 12:05:25;;;;;;;;;;;;;;;25.82;57.81;101364.61;1666638;84;20107;-76
2021/07/22 12:07:53;;;;;;;;;;;;;;;25.92;58.00;101370.98;1678268;83;20094;-76
2021/07/22 12:10:26;;;;;;;;;;;;;;;25.93;57.72;101367.38;1680091;83;20099;-76
2021/07/22 12:13:08;;;;;;;;;;;;;;;25.97;57.42;101364.41;1683496;84;20148;-76
2021/07/22 12:15:32;;;;;;;;;;;;;;;25.99;57.28;101361.17;1674722;85;20477;-76
2021/07/22 12:17:58;;;;;;;;;;;;;;;26.02;57.32;101362.73;1681818;83;20423;-76
2021/07/22 12:20:25;;;;;;;;;;;;;;;26.06;57.05;101354.95;1667344;85;20453;-76
2021/07/22 12:22:51;;;;;;;;;;;;;;;26.14;57.01;101355.27;1681286;83;20446;-76
2021/07/22 12:25:17;;;;;;;;;;;;;;;26.13;57.05;101356.22;1677262;83;20142;-76
2021/07/22 12:27:49;;;;;;;;;;;;;;;26.12;57.09;101353.20;1681742;83;20115;-76
2021/07/22 12:30:23;;;;;;;;;;;;;;;26.13;56.96;101352.24;1687277;83;20102;-77
2021/07/22 12:32:55;;;;;;;;;;;;;;;26.19;56.56;101349.17;1672566;84;20110;-77
2021/07/22 12:35:32;;;;;;;;;;;;;;;26.20;56.39;101342.91;1680888;84;20433;-77
2021/07/22 12:38:09;;;;;;;;;;;;;;;26.17;56.35;101339.63;1676671;83;20089;-76
2021/07/22 12:40:43;;;;;;;;;;;;;;;26.08;56.21;101345.56;1679269;83;20100;-76